sensor_id;sensor_type;location;lat;lon;timestamp;P1;durP1;ratioP1;P2;durP2;ratioP2
77573;SDS011;66710;48.868;9.080;2023-07-22T00:01:36;5.47;;;2.50;;
77573;SDS011;66710;48.868;9.080;2023-07-22T00:04:02;3.95;;;2.45;;
77573;SDS011;66710;48.868;9.080;2023-07-22T00:06:28;6.20;;;2.60;;
77573;SDS011;66710;48.868;9.080;2023-07-22T00:08:53;4.60;;;2.40;;
77573;SDS011;66710;48.868;9.080;2023-07-22T00:11:19;5.65;;;2.60;;
77573;SDS011;66710;48.868;9.080;2023-07-22T00:13:45;4.93;;;2.55;;
77573;SDS011;66710;48.868;9.080;2023-07-22T00:16:10;4.13;;;2.10;;
77573;SDS011;66710;48.868;9.080;2023-07-22T00:18:36;4.32;;;2.40;;
77573;SDS011;66710;48.868;9.080;2023-07-22T00:21:01;3.83;;;2.40;;
77573;SDS011;66710;48.868;9.080;2023-07-22T00:23:27;4.43;;;2.28;;
77573;SDS011;66710;48.868;9.080;2023-07-22T00:25:52;3.70;;;2.28;;
77573;SDS011;66710;48.868;9.080;2023-07-22T00:28:17;3.85;;;2.25;;
77573;SDS011;66710;48.868;9.080;2023-07-22T00:30:43;4.32;;;2.33;;
77573;SDS011;66710;48.868;9.080;2023-07-22T00:33:09;4.60;;;2.47;;
77573;SDS011;66710;48.868;9.080;2023-07-22T00:35:34;3.83;;;2.20;;
77573;SDS011;66710;48.868;9.080;2023-07-22T00:38:00;5.22;;;2.53;;
77573;SDS011;66710;48.868;9.080;2023-07-22T00:40:26;4.63;;;2.60;;
77573;SDS011;66710;48.868;9.080;2023-07-22T00:42:52;3.92;;;2.67;;
77573;SDS011;66710;48.868;9.080;2023-07-22T00:45:18;4.47;;;2.60;;
77573;SDS011;66710;48.868;9.080;2023-07-22T00:47:43;4.60;;;2.28;;
77573;SDS011;66710;48.868;9.080;2023-07-22T00:50:09;4.00;;;2.30;;
77573;SDS011;66710;48.868;9.080;2023-07-22T00:52:35;3.70;;;2.40;;
77573;SDS011;66710;48.868;9.080;2023-07-22T00:55:01;4.78;;;2.50;;
77573;SDS011;66710;48.868;9.080;2023-07-22T00:57:27;6.53;;;2.90;;
77573;SDS011;66710;48.868;9.080;2023-07-22T00:59:53;4.35;;;2.70;;
77573;SDS011;66710;48.868;9.080;2023-07-22T01:02:20;4.22;;;2.65;;
77573;SDS011;66710;48.868;9.080;2023-07-22T01:04:47;5.43;;;2.78;;
77573;SDS011;66710;48.868;9.080;2023-07-22T01:07:14;5.97;;;2.95;;
77573;SDS011;66710;48.868;9.080;2023-07-22T01:09:41;5.15;;;2.67;;
77573;SDS011;66710;48.868;9.080;2023-07-22T01:12:07;5.75;;;2.97;;
77573;SDS011;66710;48.868;9.080;2023-07-22T01:14:34;5.75;;;3.03;;
77573;SDS011;66710;48.868;9.080;2023-07-22T01:17:04;6.32;;;3.63;;
77573;SDS011;66710;48.868;9.080;2023-07-22T01:19:31;4.80;;;3.10;;
77573;SDS011;66710;48.868;9.080;2023-07-22T01:21:57;5.55;;;2.83;;
77573;SDS011;66710;48.868;9.080;2023-07-22T01:24:25;4.80;;;2.80;;
77573;SDS011;66710;48.868;9.080;2023-07-22T01:26:51;5.45;;;3.08;;
77573;SDS011;66710;48.868;9.080;2023-07-22T01:29:16;5.05;;;3.08;;
77573;SDS011;66710;48.868;9.080;2023-07-22T01:31:43;7.15;;;3.00;;
77573;SDS011;66710;48.868;9.080;2023-07-22T01:34:12;4.70;;;2.80;;
77573;SDS011;66710;48.868;9.080;2023-07-22T01:36:37;5.40;;;3.10;;
77573;SDS011;66710;48.868;9.080;2023-07-22T01:39:03;6.25;;;2.90;;
77573;SDS011;66710;48.868;9.080;2023-07-22T01:41:30;7.63;;;3.00;;
77573;SDS011;66710;48.868;9.080;2023-07-22T01:43:56;5.65;;;3.13;;
77573;SDS011;66710;48.868;9.080;2023-07-22T01:46:21;6.50;;;3.15;;
77573;SDS011;66710;48.868;9.080;2023-07-22T01:48:47;6.25;;;3.20;;
77573;SDS011;66710;48.868;9.080;2023-07-22T01:51:12;5.55;;;2.90;;
77573;SDS011;66710;48.868;9.080;2023-07-22T01:53:37;5.47;;;3.17;;
77573;SDS011;66710;48.868;9.080;2023-07-22T01:56:03;6.22;;;3.05;;
77573;SDS011;66710;48.868;9.080;2023-07-22T01:58:30;5.03;;;2.95;;
77573;SDS011;66710;48.868;9.080;2023-07-22T02:00:55;6.97;;;3.17;;
77573;SDS011;66710;48.868;9.080;2023-07-22T02:03:23;7.45;;;3.10;;
77573;SDS011;66710;48.868;9.080;2023-07-22T02:05:48;4.88;;;2.95;;
77573;SDS011;66710;48.868;9.080;2023-07-22T02:08:14;5.32;;;3.20;;
77573;SDS011;66710;48.868;9.080;2023-07-22T02:10:39;5.18;;;3.03;;
77573;SDS011;66710;48.868;9.080;2023-07-22T02:13:05;5.85;;;3.22;;
77573;SDS011;66710;48.868;9.080;2023-07-22T02:15:32;4.97;;;2.70;;
77573;SDS011;66710;48.868;9.080;2023-07-22T02:17:58;4.20;;;2.85;;
77573;SDS011;66710;48.868;9.080;2023-07-22T02:20:23;4.47;;;3.00;;
77573;SDS011;66710;48.868;9.080;2023-07-22T02:22:51;6.70;;;3.20;;
77573;SDS011;66710;48.868;9.080;2023-07-22T02:25:17;10.25;;;3.45;;
77573;SDS011;66710;48.868;9.080;2023-07-22T02:27:42;6.18;;;3.13;;
77573;SDS011;66710;48.868;9.080;2023-07-22T02:30:08;4.45;;;2.92;;
77573;SDS011;66710;48.868;9.080;2023-07-22T02:32:38;5.28;;;3.10;;
77573;SDS011;66710;48.868;9.080;2023-07-22T02:35:04;5.45;;;3.33;;
77573;SDS011;66710;48.868;9.080;2023-07-22T02:37:31;7.22;;;3.30;;
77573;SDS011;66710;48.868;9.080;2023-07-22T02:39:57;5.53;;;3.45;;
77573;SDS011;66710;48.868;9.080;2023-07-22T02:42:22;6.38;;;3.30;;
77573;SDS011;66710;48.868;9.080;2023-07-22T02:44:48;5.60;;;3.47;;
77573;SDS011;66710;48.868;9.080;2023-07-22T02:47:13;5.72;;;3.60;;
77573;SDS011;66710;48.868;9.080;2023-07-22T02:49:39;5.70;;;3.67;;
77573;SDS011;66710;48.868;9.080;2023-07-22T02:52:05;6.10;;;3.65;;
77573;SDS011;66710;48.868;9.080;2023-07-22T02:54:31;6.15;;;3.72;;
77573;SDS011;66710;48.868;9.080;2023-07-22T02:56:57;6.53;;;3.45;;
77573;SDS011;66710;48.868;9.080;2023-07-22T02:59:22;6.10;;;3.70;;
77573;SDS011;66710;48.868;9.080;2023-07-22T03:01:49;6.03;;;3.40;;
77573;SDS011;66710;48.868;9.080;2023-07-22T03:04:14;6.25;;;3.42;;
77573;SDS011;66710;48.868;9.080;2023-07-22T03:06:40;6.95;;;3.88;;
77573;SDS011;66710;48.868;9.080;2023-07-22T03:09:07;6.18;;;3.40;;
77573;SDS011;66710;48.868;9.080;2023-07-22T03:11:32;6.57;;;3.30;;
77573;SDS011;66710;48.868;9.080;2023-07-22T03:13:59;5.10;;;3.42;;
77573;SDS011;66710;48.868;9.080;2023-07-22T03:16:24;6.45;;;3.63;;
77573;SDS011;66710;48.868;9.080;2023-07-22T03:18:50;5.68;;;3.20;;
77573;SDS011;66710;48.868;9.080;2023-07-22T03:21:15;4.60;;;3.40;;
77573;SDS011;66710;48.868;9.080;2023-07-22T03:23:41;7.82;;;3.40;;
77573;SDS011;66710;48.868;9.080;2023-07-22T03:26:06;4.50;;;3.20;;
77573;SDS011;66710;48.868;9.080;2023-07-22T03:28:32;5.80;;;3.28;;
77573;SDS011;66710;48.868;9.080;2023-07-22T03:30:57;5.20;;;3.05;;
77573;SDS011;66710;48.868;9.080;2023-07-22T03:33:22;4.60;;;2.92;;
77573;SDS011;66710;48.868;9.080;2023-07-22T03:35:47;6.80;;;3.70;;
77573;SDS011;66710;48.868;9.080;2023-07-22T03:38:13;4.40;;;3.20;;
77573;SDS011;66710;48.868;9.080;2023-07-22T03:40:38;6.97;;;3.58;;
77573;SDS011;66710;48.868;9.080;2023-07-22T03:43:04;4.72;;;3.10;;
77573;SDS011;66710;48.868;9.080;2023-07-22T03:45:29;4.60;;;2.92;;
77573;SDS011;66710;48.868;9.080;2023-07-22T03:47:58;5.63;;;3.47;;
77573;SDS011;66710;48.868;9.080;2023-07-22T03:50:25;4.75;;;3.03;;
77573;SDS011;66710;48.868;9.080;2023-07-22T03:52:51;4.88;;;3.05;;
77573;SDS011;66710;48.868;9.080;2023-07-22T03:55:16;4.55;;;2.90;;
77573;SDS011;66710;48.868;9.080;2023-07-22T03:57:44;5.43;;;2.85;;
77573;SDS011;66710;48.868;9.080;2023-07-22T04:00:09;6.05;;;3.30;;
77573;SDS011;66710;48.868;9.080;2023-07-22T04:02:35;5.30;;;3.22;;
77573;SDS011;66710;48.868;9.080;2023-07-22T04:05:00;4.75;;;3.40;;
77573;SDS011;66710;48.868;9.080;2023-07-22T04:07:26;9.60;;;3.78;;
77573;SDS011;66710;48.868;9.080;2023-07-22T04:09:51;6.03;;;3.63;;
77573;SDS011;66710;48.868;9.080;2023-07-22T04:12:16;5.50;;;3.53;;
77573;SDS011;66710;48.868;9.080;2023-07-22T04:14:42;5.47;;;3.35;;
77573;SDS011;66710;48.868;9.080;2023-07-22T04:17:07;5.43;;;3.28;;
77573;SDS011;66710;48.868;9.080;2023-07-22T04:19:33;5.63;;;3.30;;
77573;SDS011;66710;48.868;9.080;2023-07-22T04:21:59;4.25;;;3.00;;
77573;SDS011;66710;48.868;9.080;2023-07-22T04:24:29;5.88;;;3.42;;
77573;SDS011;66710;48.868;9.080;2023-07-22T04:26:56;4.80;;;2.80;;
77573;SDS011;66710;48.868;9.080;2023-07-22T04:29:22;4.72;;;2.80;;
77573;SDS011;66710;48.868;9.080;2023-07-22T04:31:47;4.70;;;2.90;;
77573;SDS011;66710;48.868;9.080;2023-07-22T04:34:13;4.43;;;2.92;;
77573;SDS011;66710;48.868;9.080;2023-07-22T04:36:38;6.82;;;3.20;;
77573;SDS011;66710;48.868;9.080;2023-07-22T04:39:04;5.82;;;3.22;;
77573;SDS011;66710;48.868;9.080;2023-07-22T04:41:33;4.90;;;2.97;;
77573;SDS011;66710;48.868;9.080;2023-07-22T04:43:58;6.30;;;3.40;;
77573;SDS011;66710;48.868;9.080;2023-07-22T04:46:24;5.93;;;3.22;;
77573;SDS011;66710;48.868;9.080;2023-07-22T04:48:55;5.47;;;3.05;;
77573;SDS011;66710;48.868;9.080;2023-07-22T04:51:23;4.63;;;2.95;;
77573;SDS011;66710;48.868;9.080;2023-07-22T04:53:48;6.28;;;3.20;;
77573;SDS011;66710;48.868;9.080;2023-07-22T04:56:14;5.75;;;3.20;;
77573;SDS011;66710;48.868;9.080;2023-07-22T04:58:39;5.25;;;3.50;;
77573;SDS011;66710;48.868;9.080;2023-07-22T05:01:04;6.00;;;3.00;;
77573;SDS011;66710;48.868;9.080;2023-07-22T05:03:30;4.70;;;3.05;;
77573;SDS011;66710;48.868;9.080;2023-07-22T05:05:55;4.65;;;2.90;;
77573;SDS011;66710;48.868;9.080;2023-07-22T05:08:22;5.75;;;2.90;;
77573;SDS011;66710;48.868;9.080;2023-07-22T05:10:48;5.20;;;3.03;;
77573;SDS011;66710;48.868;9.080;2023-07-22T05:13:13;4.70;;;3.20;;
77573;SDS011;66710;48.868;9.080;2023-07-22T05:15:42;4.50;;;2.80;;
77573;SDS011;66710;48.868;9.080;2023-07-22T05:18:07;5.85;;;2.70;;
77573;SDS011;66710;48.868;9.080;2023-07-22T05:20:32;5.68;;;3.22;;
77573;SDS011;66710;48.868;9.080;2023-07-22T05:22:58;4.70;;;2.95;;
77573;SDS011;66710;48.868;9.080;2023-07-22T05:25:23;7.47;;;2.90;;
77573;SDS011;66710;48.868;9.080;2023-07-22T05:27:49;6.57;;;2.80;;
77573;SDS011;66710;48.868;9.080;2023-07-22T05:30:14;4.70;;;2.70;;
77573;SDS011;66710;48.868;9.080;2023-07-22T05:32:39;4.00;;;2.75;;
77573;SDS011;66710;48.868;9.080;2023-07-22T05:35:05;5.20;;;2.85;;
77573;SDS011;66710;48.868;9.080;2023-07-22T05:37:31;4.65;;;2.60;;
77573;SDS011;66710;48.868;9.080;2023-07-22T05:39:57;3.90;;;2.25;;
77573;SDS011;66710;48.868;9.080;2023-07-22T05:42:22;4.80;;;2.72;;
77573;SDS011;66710;48.868;9.080;2023-07-22T05:44:48;5.35;;;2.65;;
77573;SDS011;66710;48.868;9.080;2023-07-22T05:47:14;3.60;;;2.45;;
77573;SDS011;66710;48.868;9.080;2023-07-22T05:49:39;5.03;;;2.67;;
77573;SDS011;66710;48.868;9.080;2023-07-22T05:52:05;4.80;;;2.47;;
77573;SDS011;66710;48.868;9.080;2023-07-22T05:54:31;5.28;;;2.60;;
77573;SDS011;66710;48.868;9.080;2023-07-22T05:56:56;4.57;;;2.60;;
77573;SDS011;66710;48.868;9.080;2023-07-22T05:59:21;4.22;;;2.50;;
77573;SDS011;66710;48.868;9.080;2023-07-22T06:01:47;5.03;;;2.63;;
77573;SDS011;66710;48.868;9.080;2023-07-22T06:04:12;4.45;;;2.65;;
77573;SDS011;66710;48.868;9.080;2023-07-22T06:06:38;4.00;;;2.42;;
77573;SDS011;66710;48.868;9.080;2023-07-22T06:09:03;5.13;;;2.38;;
77573;SDS011;66710;48.868;9.080;2023-07-22T06:11:29;4.20;;;2.30;;
77573;SDS011;66710;48.868;9.080;2023-07-22T06:13:55;5.30;;;2.50;;
77573;SDS011;66710;48.868;9.080;2023-07-22T06:16:21;4.72;;;2.70;;
77573;SDS011;66710;48.868;9.080;2023-07-22T06:18:47;3.80;;;2.47;;
77573;SDS011;66710;48.868;9.080;2023-07-22T06:21:12;4.38;;;2.63;;
77573;SDS011;66710;48.868;9.080;2023-07-22T06:23:37;3.22;;;2.33;;
77573;SDS011;66710;48.868;9.080;2023-07-22T06:26:03;4.82;;;2.45;;
77573;SDS011;66710;48.868;9.080;2023-07-22T06:28:28;10.02;;;3.17;;
77573;SDS011;66710;48.868;9.080;2023-07-22T06:30:53;5.65;;;2.42;;
77573;SDS011;66710;48.868;9.080;2023-07-22T06:33:19;6.38;;;2.33;;
77573;SDS011;66710;48.868;9.080;2023-07-22T06:35:45;3.72;;;2.30;;
77573;SDS011;66710;48.868;9.080;2023-07-22T06:38:10;5.22;;;2.20;;
77573;SDS011;66710;48.868;9.080;2023-07-22T06:40:36;4.10;;;2.50;;
77573;SDS011;66710;48.868;9.080;2023-07-22T06:43:01;5.50;;;2.72;;
77573;SDS011;66710;48.868;9.080;2023-07-22T06:45:27;4.63;;;2.45;;
77573;SDS011;66710;48.868;9.080;2023-07-22T06:47:52;3.95;;;2.10;;
77573;SDS011;66710;48.868;9.080;2023-07-22T06:50:18;5.28;;;2.30;;
77573;SDS011;66710;48.868;9.080;2023-07-22T06:52:43;5.22;;;2.05;;
77573;SDS011;66710;48.868;9.080;2023-07-22T06:55:09;5.57;;;2.28;;
77573;SDS011;66710;48.868;9.080;2023-07-22T06:57:34;3.35;;;2.30;;
77573;SDS011;66710;48.868;9.080;2023-07-22T07:00:00;4.93;;;2.28;;
77573;SDS011;66710;48.868;9.080;2023-07-22T07:02:25;4.10;;;2.10;;
77573;SDS011;66710;48.868;9.080;2023-07-22T07:04:52;4.40;;;2.28;;
77573;SDS011;66710;48.868;9.080;2023-07-22T07:07:17;2.85;;;1.92;;
77573;SDS011;66710;48.868;9.080;2023-07-22T07:09:42;4.18;;;2.60;;
77573;SDS011;66710;48.868;9.080;2023-07-22T07:12:08;4.15;;;2.30;;
77573;SDS011;66710;48.868;9.080;2023-07-22T07:14:34;5.25;;;2.40;;
77573;SDS011;66710;48.868;9.080;2023-07-22T07:17:00;3.83;;;2.42;;
77573;SDS011;66710;48.868;9.080;2023-07-22T07:19:26;5.20;;;2.50;;
77573;SDS011;66710;48.868;9.080;2023-07-22T07:21:52;3.80;;;2.42;;
77573;SDS011;66710;48.868;9.080;2023-07-22T07:24:18;5.03;;;2.50;;
77573;SDS011;66710;48.868;9.080;2023-07-22T07:26:44;4.97;;;2.38;;
77573;SDS011;66710;48.868;9.080;2023-07-22T07:29:09;4.82;;;2.70;;
77573;SDS011;66710;48.868;9.080;2023-07-22T07:31:35;3.88;;;2.45;;
77573;SDS011;66710;48.868;9.080;2023-07-22T07:34:01;5.28;;;2.45;;
77573;SDS011;66710;48.868;9.080;2023-07-22T07:36:26;5.65;;;2.35;;
77573;SDS011;66710;48.868;9.080;2023-07-22T07:38:52;4.65;;;2.50;;
77573;SDS011;66710;48.868;9.080;2023-07-22T07:41:17;4.70;;;2.30;;
77573;SDS011;66710;48.868;9.080;2023-07-22T07:43:43;4.30;;;2.20;;
77573;SDS011;66710;48.868;9.080;2023-07-22T07:46:12;4.28;;;2.28;;
77573;SDS011;66710;48.868;9.080;2023-07-22T07:48:52;5.97;;;2.67;;
77573;SDS011;66710;48.868;9.080;2023-07-22T07:51:19;3.97;;;2.33;;
77573;SDS011;66710;48.868;9.080;2023-07-22T07:53:46;4.47;;;2.25;;
77573;SDS011;66710;48.868;9.080;2023-07-22T07:56:15;3.63;;;2.28;;
77573;SDS011;66710;48.868;9.080;2023-07-22T07:58:41;3.53;;;2.30;;
77573;SDS011;66710;48.868;9.080;2023-07-22T08:01:08;4.55;;;2.35;;
77573;SDS011;66710;48.868;9.080;2023-07-22T08:03:33;4.20;;;2.50;;
77573;SDS011;66710;48.868;9.080;2023-07-22T08:06:00;4.18;;;2.40;;
77573;SDS011;66710;48.868;9.080;2023-07-22T08:08:26;3.97;;;2.50;;
77573;SDS011;66710;48.868;9.080;2023-07-22T08:10:58;5.43;;;2.35;;
77573;SDS011;66710;48.868;9.080;2023-07-22T08:13:26;3.83;;;2.20;;
77573;SDS011;66710;48.868;9.080;2023-07-22T08:15:55;4.90;;;2.55;;
77573;SDS011;66710;48.868;9.080;2023-07-22T08:18:21;4.63;;;2.30;;
77573;SDS011;66710;48.868;9.080;2023-07-22T08:20:46;4.05;;;2.40;;
77573;SDS011;66710;48.868;9.080;2023-07-22T08:23:12;3.85;;;2.25;;
77573;SDS011;66710;48.868;9.080;2023-07-22T08:25:38;3.53;;;2.38;;
77573;SDS011;66710;48.868;9.080;2023-07-22T08:28:03;3.65;;;2.30;;
77573;SDS011;66710;48.868;9.080;2023-07-22T08:30:28;4.70;;;2.38;;
77573;SDS011;66710;48.868;9.080;2023-07-22T08:32:54;3.65;;;2.38;;
77573;SDS011;66710;48.868;9.080;2023-07-22T08:35:19;3.78;;;2.42;;
77573;SDS011;66710;48.868;9.080;2023-07-22T08:37:44;4.65;;;2.70;;
77573;SDS011;66710;48.868;9.080;2023-07-22T08:40:12;3.90;;;2.47;;
77573;SDS011;66710;48.868;9.080;2023-07-22T08:42:37;3.72;;;2.30;;
77573;SDS011;66710;48.868;9.080;2023-07-22T08:45:03;3.35;;;2.22;;
77573;SDS011;66710;48.868;9.080;2023-07-22T08:47:31;3.60;;;2.17;;
77573;SDS011;66710;48.868;9.080;2023-07-22T08:49:58;4.13;;;2.40;;
77573;SDS011;66710;48.868;9.080;2023-07-22T08:52:26;3.90;;;2.20;;
77573;SDS011;66710;48.868;9.080;2023-07-22T08:54:52;3.35;;;2.15;;
77573;SDS011;66710;48.868;9.080;2023-07-22T08:57:18;3.58;;;2.15;;
77573;SDS011;66710;48.868;9.080;2023-07-22T08:59:44;3.42;;;2.00;;
77573;SDS011;66710;48.868;9.080;2023-07-22T09:02:12;3.38;;;2.10;;
77573;SDS011;66710;48.868;9.080;2023-07-22T09:04:38;3.53;;;2.30;;
77573;SDS011;66710;48.868;9.080;2023-07-22T09:07:06;3.50;;;2.08;;
77573;SDS011;66710;48.868;9.080;2023-07-22T09:09:33;4.20;;;2.00;;
77573;SDS011;66710;48.868;9.080;2023-07-22T09:11:59;4.75;;;2.25;;
77573;SDS011;66710;48.868;9.080;2023-07-22T09:14:26;3.42;;;2.05;;
77573;SDS011;66710;48.868;9.080;2023-07-22T09:16:52;5.38;;;2.40;;
77573;SDS011;66710;48.868;9.080;2023-07-22T09:19:18;3.88;;;2.60;;
77573;SDS011;66710;48.868;9.080;2023-07-22T09:21:44;3.35;;;2.20;;
77573;SDS011;66710;48.868;9.080;2023-07-22T09:24:22;3.95;;;2.17;;
77573;SDS011;66710;48.868;9.080;2023-07-22T09:26:51;4.17;;;2.20;;
77573;SDS011;66710;48.868;9.080;2023-07-22T09:29:16;3.10;;;2.10;;
77573;SDS011;66710;48.868;9.080;2023-07-22T09:31:49;3.35;;;2.00;;
77573;SDS011;66710;48.868;9.080;2023-07-22T09:34:16;3.97;;;2.10;;
77573;SDS011;66710;48.868;9.080;2023-07-22T09:36:51;3.45;;;2.08;;
77573;SDS011;66710;48.868;9.080;2023-07-22T09:39:20;4.28;;;2.20;;
77573;SDS011;66710;48.868;9.080;2023-07-22T09:41:46;3.08;;;1.92;;
77573;SDS011;66710;48.868;9.080;2023-07-22T09:44:12;5.47;;;2.60;;
77573;SDS011;66710;48.868;9.080;2023-07-22T09:46:37;2.92;;;2.00;;
77573;SDS011;66710;48.868;9.080;2023-07-22T09:49:04;3.83;;;2.00;;
77573;SDS011;66710;48.868;9.080;2023-07-22T09:51:40;4.15;;;2.30;;
77573;SDS011;66710;48.868;9.080;2023-07-22T09:54:06;2.90;;;1.90;;
77573;SDS011;66710;48.868;9.080;2023-07-22T09:56:32;3.28;;;2.15;;
77573;SDS011;66710;48.868;9.080;2023-07-22T09:59:08;4.72;;;2.30;;
77573;SDS011;66710;48.868;9.080;2023-07-22T10:01:37;3.97;;;2.05;;
77573;SDS011;66710;48.868;9.080;2023-07-22T10:04:03;2.50;;;1.80;;
77573;SDS011;66710;48.868;9.080;2023-07-22T10:06:30;3.25;;;1.90;;
77573;SDS011;66710;48.868;9.080;2023-07-22T10:08:57;3.00;;;1.90;;
77573;SDS011;66710;48.868;9.080;2023-07-22T10:11:27;3.13;;;1.70;;
77573;SDS011;66710;48.868;9.080;2023-07-22T10:13:53;2.15;;;1.70;;
77573;SDS011;66710;48.868;9.080;2023-07-22T10:16:20;2.45;;;1.70;;
77573;SDS011;66710;48.868;9.080;2023-07-22T10:18:47;3.55;;;1.90;;
77573;SDS011;66710;48.868;9.080;2023-07-22T10:21:13;1.90;;;1.40;;
77573;SDS011;66710;48.868;9.080;2023-07-22T10:23:40;3.00;;;1.70;;
77573;SDS011;66710;48.868;9.080;2023-07-22T10:26:05;2.50;;;1.50;;
77573;SDS011;66710;48.868;9.080;2023-07-22T10:28:32;2.38;;;1.60;;
77573;SDS011;66710;48.868;9.080;2023-07-22T10:30:58;3.22;;;1.77;;
77573;SDS011;66710;48.868;9.080;2023-07-22T10:33:24;2.88;;;1.73;;
77573;SDS011;66710;48.868;9.080;2023-07-22T10:36:07;1.58;;;1.35;;
77573;SDS011;66710;48.868;9.080;2023-07-22T10:38:34;2.50;;;1.50;;
77573;SDS011;66710;48.868;9.080;2023-07-22T10:41:01;2.97;;;1.63;;
77573;SDS011;66710;48.868;9.080;2023-07-22T10:43:34;3.42;;;1.58;;
77573;SDS011;66710;48.868;9.080;2023-07-22T10:46:09;3.38;;;1.65;;
77573;SDS011;66710;48.868;9.080;2023-07-22T10:48:38;2.53;;;1.70;;
77573;SDS011;66710;48.868;9.080;2023-07-22T10:51:07;2.50;;;1.70;;
77573;SDS011;66710;48.868;9.080;2023-07-22T10:53:40;2.88;;;1.60;;
77573;SDS011;66710;48.868;9.080;2023-07-22T10:59:17;3.88;;;1.70;;
77573;SDS011;66710;48.868;9.080;2023-07-22T11:09:26;3.38;;;1.80;;
77573;SDS011;66710;48.868;9.080;2023-07-22T11:12:08;3.38;;;1.75;;
77573;SDS011;66710;48.868;9.080;2023-07-22T11:17:14;3.13;;;1.90;;
77573;SDS011;66710;48.868;9.080;2023-07-22T11:19:40;2.20;;;1.40;;
77573;SDS011;66710;48.868;9.080;2023-07-22T11:22:06;2.55;;;1.58;;
77573;SDS011;66710;48.868;9.080;2023-07-22T11:24:32;2.60;;;1.60;;
77573;SDS011;66710;48.868;9.080;2023-07-22T11:27:01;2.70;;;1.60;;
77573;SDS011;66710;48.868;9.080;2023-07-22T11:29:28;3.20;;;1.80;;
77573;SDS011;66710;48.868;9.080;2023-07-22T11:31:54;2.75;;;1.80;;
77573;SDS011;66710;48.868;9.080;2023-07-22T11:34:20;4.57;;;1.80;;
77573;SDS011;66710;48.868;9.080;2023-07-22T11:36:47;3.08;;;1.83;;
77573;SDS011;66710;48.868;9.080;2023-07-22T11:39:15;2.85;;;1.90;;
77573;SDS011;66710;48.868;9.080;2023-07-22T11:41:42;3.00;;;1.85;;
77573;SDS011;66710;48.868;9.080;2023-07-22T11:44:10;2.28;;;1.48;;
77573;SDS011;66710;48.868;9.080;2023-07-22T11:46:54;3.88;;;1.80;;
77573;SDS011;66710;48.868;9.080;2023-07-22T11:51:54;3.47;;;1.90;;
77573;SDS011;66710;48.868;9.080;2023-07-22T11:54:30;3.00;;;2.00;;
77573;SDS011;66710;48.868;9.080;2023-07-22T11:56:58;3.15;;;1.80;;
77573;SDS011;66710;48.868;9.080;2023-07-22T11:59:45;3.10;;;1.90;;
77573;SDS011;66710;48.868;9.080;2023-07-22T12:02:14;3.20;;;1.90;;
77573;SDS011;66710;48.868;9.080;2023-07-22T12:04:41;2.92;;;1.70;;
77573;SDS011;66710;48.868;9.080;2023-07-22T12:07:20;3.20;;;1.80;;
77573;SDS011;66710;48.868;9.080;2023-07-22T12:09:48;2.92;;;1.80;;
77573;SDS011;66710;48.868;9.080;2023-07-22T12:12:14;3.17;;;1.67;;
77573;SDS011;66710;48.868;9.080;2023-07-22T12:14:40;2.80;;;1.90;;
77573;SDS011;66710;48.868;9.080;2023-07-22T12:17:07;2.92;;;1.70;;
77573;SDS011;66710;48.868;9.080;2023-07-22T12:19:34;3.50;;;2.00;;
77573;SDS011;66710;48.868;9.080;2023-07-22T12:21:59;3.42;;;2.00;;
77573;SDS011;66710;48.868;9.080;2023-07-22T12:24:26;4.60;;;2.00;;
77573;SDS011;66710;48.868;9.080;2023-07-22T12:26:52;3.58;;;2.03;;
77573;SDS011;66710;48.868;9.080;2023-07-22T12:29:17;3.42;;;2.03;;
77573;SDS011;66710;48.868;9.080;2023-07-22T12:31:43;3.88;;;1.77;;
77573;SDS011;66710;48.868;9.080;2023-07-22T12:34:08;3.60;;;2.28;;
77573;SDS011;66710;48.868;9.080;2023-07-22T12:36:34;2.67;;;1.75;;
77573;SDS011;66710;48.868;9.080;2023-07-22T12:38:59;3.58;;;2.00;;
77573;SDS011;66710;48.868;9.080;2023-07-22T12:41:24;4.07;;;2.00;;
77573;SDS011;66710;48.868;9.080;2023-07-22T12:43:50;3.33;;;2.10;;
77573;SDS011;66710;48.868;9.080;2023-07-22T12:46:16;2.97;;;1.88;;
77573;SDS011;66710;48.868;9.080;2023-07-22T12:48:41;4.15;;;2.15;;
77573;SDS011;66710;48.868;9.080;2023-07-22T12:51:07;3.38;;;1.88;;
77573;SDS011;66710;48.868;9.080;2023-07-22T12:53:34;3.88;;;1.90;;
77573;SDS011;66710;48.868;9.080;2023-07-22T12:55:59;3.20;;;2.05;;
77573;SDS011;66710;48.868;9.080;2023-07-22T12:58:27;3.25;;;2.10;;
77573;SDS011;66710;48.868;9.080;2023-07-22T13:00:53;4.38;;;2.20;;
77573;SDS011;66710;48.868;9.080;2023-07-22T13:03:18;3.75;;;2.10;;
77573;SDS011;66710;48.868;9.080;2023-07-22T13:05:43;4.78;;;2.10;;
77573;SDS011;66710;48.868;9.080;2023-07-22T13:08:09;2.65;;;1.70;;
77573;SDS011;66710;48.868;9.080;2023-07-22T13:10:34;6.00;;;2.50;;
77573;SDS011;66710;48.868;9.080;2023-07-22T13:13:02;4.15;;;2.10;;
77573;SDS011;66710;48.868;9.080;2023-07-22T13:15:28;4.22;;;2.15;;
77573;SDS011;66710;48.868;9.080;2023-07-22T13:17:53;3.20;;;1.80;;
77573;SDS011;66710;48.868;9.080;2023-07-22T13:20:18;3.35;;;2.10;;
77573;SDS011;66710;48.868;9.080;2023-07-22T13:22:43;4.57;;;2.00;;
77573;SDS011;66710;48.868;9.080;2023-07-22T13:25:09;2.75;;;1.90;;
77573;SDS011;66710;48.868;9.080;2023-07-22T13:27:34;3.53;;;1.88;;
77573;SDS011;66710;48.868;9.080;2023-07-22T13:30:00;3.33;;;2.00;;
77573;SDS011;66710;48.868;9.080;2023-07-22T13:32:26;3.20;;;1.98;;
77573;SDS011;66710;48.868;9.080;2023-07-22T13:34:51;3.78;;;2.15;;
77573;SDS011;66710;48.868;9.080;2023-07-22T13:37:17;4.50;;;2.22;;
77573;SDS011;66710;48.868;9.080;2023-07-22T13:39:42;3.42;;;1.98;;
77573;SDS011;66710;48.868;9.080;2023-07-22T13:42:07;3.25;;;2.20;;
77573;SDS011;66710;48.868;9.080;2023-07-22T13:44:33;2.95;;;2.00;;
77573;SDS011;66710;48.868;9.080;2023-07-22T13:46:58;4.93;;;2.10;;
77573;SDS011;66710;48.868;9.080;2023-07-22T13:49:24;3.70;;;2.10;;
77573;SDS011;66710;48.868;9.080;2023-07-22T13:51:49;3.97;;;2.10;;
77573;SDS011;66710;48.868;9.080;2023-07-22T13:54:14;3.85;;;2.25;;
77573;SDS011;66710;48.868;9.080;2023-07-22T13:56:41;4.45;;;2.22;;
77573;SDS011;66710;48.868;9.080;2023-07-22T13:59:07;2.65;;;1.85;;
77573;SDS011;66710;48.868;9.080;2023-07-22T14:01:32;3.13;;;2.10;;
77573;SDS011;66710;48.868;9.080;2023-07-22T14:03:58;3.80;;;2.50;;
77573;SDS011;66710;48.868;9.080;2023-07-22T14:06:23;3.00;;;2.13;;
77573;SDS011;66710;48.868;9.080;2023-07-22T14:08:49;3.60;;;2.13;;
77573;SDS011;66710;48.868;9.080;2023-07-22T14:11:14;4.95;;;2.10;;
77573;SDS011;66710;48.868;9.080;2023-07-22T14:13:39;3.97;;;2.55;;
77573;SDS011;66710;48.868;9.080;2023-07-22T14:16:05;3.67;;;2.00;;
77573;SDS011;66710;48.868;9.080;2023-07-22T14:18:30;4.45;;;2.20;;
77573;SDS011;66710;48.868;9.080;2023-07-22T14:20:56;3.88;;;2.33;;
77573;SDS011;66710;48.868;9.080;2023-07-22T14:23:21;3.83;;;2.30;;
77573;SDS011;66710;48.868;9.080;2023-07-22T14:25:46;4.38;;;2.00;;
77573;SDS011;66710;48.868;9.080;2023-07-22T14:28:11;3.20;;;1.80;;
77573;SDS011;66710;48.868;9.080;2023-07-22T14:30:37;3.63;;;2.38;;
77573;SDS011;66710;48.868;9.080;2023-07-22T14:33:02;3.90;;;2.40;;
77573;SDS011;66710;48.868;9.080;2023-07-22T14:35:28;3.85;;;2.47;;
77573;SDS011;66710;48.868;9.080;2023-07-22T14:37:53;3.78;;;2.30;;
77573;SDS011;66710;48.868;9.080;2023-07-22T14:40:18;3.45;;;2.00;;
77573;SDS011;66710;48.868;9.080;2023-07-22T14:42:44;4.53;;;2.35;;
77573;SDS011;66710;48.868;9.080;2023-07-22T14:45:09;5.07;;;2.40;;
77573;SDS011;66710;48.868;9.080;2023-07-22T14:47:34;5.20;;;2.55;;
77573;SDS011;66710;48.868;9.080;2023-07-22T14:50:00;3.38;;;2.20;;
77573;SDS011;66710;48.868;9.080;2023-07-22T14:52:25;4.40;;;2.63;;
77573;SDS011;66710;48.868;9.080;2023-07-22T14:54:51;4.43;;;2.65;;
77573;SDS011;66710;48.868;9.080;2023-07-22T14:57:16;4.68;;;2.50;;
77573;SDS011;66710;48.868;9.080;2023-07-22T14:59:42;3.72;;;2.33;;